首页
METAR-TAF:

METAR-TAF

机场 :

Leeming, 英格兰

纬度: 54-18N, 经度: 001-32W, 海拔: 40米

当前天气观测

该预报发布于1小时和6分钟前的03:50 UTC
风速7节,风向南转南东
温度 3°C
湿度 100%
气压 1016 hPa
能見度: 7000
轻雾

METAR: EGXE 250350Z AUTO 15007KT 7000 BR BKN017/// BKN140/// 03/03 Q1016

时间: 04:56 (04:56 UTC)

预报

该预报发布于15小时和28分钟前的13:28 UTC
预报有效从24日的 15点(UTC)到 24日的 18点(UTC)
风速7节,风向西
能见度10公里或以上
少量云层高于2000英尺
几率 30% :
短暂存在
从 24日的 15点(UTC)到 24日的 18点(UTC)
散云层高于1600英尺

TAF: EGXE 241328Z 2415/2418 26007KT 9999 FEW020 PROB30 TEMPO 2415/2418 SCT016

超过4000个机场的气象观测和天气预报(METAR&TAF报告)。

可查询的气象台以黄色和红色小点在地图上表示。

将鼠标移到小点上方,可查看气象台名称。

然后点击查看天气观测和预报。

如需切换地图:点击带黑十字的绿色按钮放大地图;点击带横线的绿色按钮缩小地图;或者点击绿色箭头查看邻近地区的地图。


METAR-TAF: